sensor_id;sensor_type;location;lat;lon;timestamp;P1;P2;P0
46381;PMS5003;66809;52.974;-2.514;2024-02-21T00:00:12;3.0166666666666666;2.783333333333333;
46381;PMS5003;66809;52.974;-2.514;2024-02-21T00:02:12;2.933333333333333;2.7;
46381;PMS5003;66809;52.974;-2.514;2024-02-21T00:04:12;2.9;2.65;
46381;PMS5003;66809;52.974;-2.514;2024-02-21T00:06:11;2.9;2.6333333333333333;
46381;PMS5003;66809;52.974;-2.514;2024-02-21T00:08:12;2.8833333333333333;2.5833333333333335;
46381;PMS5003;66809;52.974;-2.514;2024-02-21T00:10:12;2.8;2.5;
46381;PMS5003;66809;52.974;-2.514;2024-02-21T00:12:11;2.7666666666666666;2.466666666666667;
46381;PMS5003;66809;52.974;-2.514;2024-02-21T00:14:12;2.716666666666667;2.4166666666666665;
46381;PMS5003;66809;52.974;-2.514;2024-02-21T00:16:12;2.6666666666666665;2.3;
46381;PMS5003;66809;52.974;-2.514;2024-02-21T00:18:11;2.55;2.2;
46381;PMS5003;66809;52.974;-2.514;2024-02-21T00:20:12;2.433333333333333;2.0833333333333335;
46381;PMS5003;66809;52.974;-2.514;2024-02-21T00:22:12;2.2666666666666666;1.9333333333333333;
46381;PMS5003;66809;52.974;-2.514;2024-02-21T00:24:11;2.15;1.8166666666666667;
46381;PMS5003;66809;52.974;-2.514;2024-02-21T00:26:12;2.0166666666666666;1.6833333333333333;
46381;PMS5003;66809;52.974;-2.514;2024-02-21T00:28:12;1.8666666666666667;1.5333333333333334;
46381;PMS5003;66809;52.974;-2.514;2024-02-21T00:30:12;1.7166666666666666;1.3833333333333333;
46381;PMS5003;66809;52.974;-2.514;2024-02-21T00:32:12;1.6;1.3;
46381;PMS5003;66809;52.974;-2.514;2024-02-21T00:34:12;1.5333333333333334;1.2166666666666666;
46381;PMS5003;66809;52.974;-2.514;2024-02-21T00:36:11;1.45;1.1333333333333333;
46381;PMS5003;66809;52.974;-2.514;2024-02-21T00:38:12;1.3666666666666667;1.05;
46381;PMS5003;66809;52.974;-2.514;2024-02-21T00:40:12;1.3666666666666667;1.05;
46381;PMS5003;66809;52.974;-2.514;2024-02-21T00:42:11;1.3166666666666667;1.0;
46381;PMS5003;66809;52.974;-2.514;2024-02-21T00:44:12;1.25;0.9333333333333333;
46381;PMS5003;66809;52.974;-2.514;2024-02-21T00:46:12;1.2166666666666666;0.9166666666666666;
46381;PMS5003;66809;52.974;-2.514;2024-02-21T00:48:11;1.15;0.85;
46381;PMS5003;66809;52.974;-2.514;2024-02-21T00:50:12;1.1333333333333333;0.8166666666666667;
46381;PMS5003;66809;52.974;-2.514;2024-02-21T00:52:12;1.0333333333333334;0.75;
46381;PMS5003;66809;52.974;-2.514;2024-02-21T00:54:12;0.9666666666666667;0.7166666666666667;
46381;PMS5003;66809;52.974;-2.514;2024-02-21T00:56:12;0.9333333333333333;0.7;
46381;PMS5003;66809;52.974;-2.514;2024-02-21T00:58:13;0.8666666666666667;0.6166666666666667;
46381;PMS5003;66809;52.974;-2.514;2024-02-21T01:00:12;0.85;0.6;
46381;PMS5003;66809;52.974;-2.514;2024-02-21T01:02:12;0.8333333333333334;0.5833333333333334;
46381;PMS5003;66809;52.974;-2.514;2024-02-21T01:04:12;0.8;0.5666666666666667;
46381;PMS5003;66809;52.974;-2.514;2024-02-21T01:06:11;0.7833333333333333;0.5666666666666667;
46381;PMS5003;66809;52.974;-2.514;2024-02-21T01:08:12;0.7333333333333333;0.55;
46381;PMS5003;66809;52.974;-2.514;2024-02-21T01:10:12;0.8166666666666667;0.6166666666666667;
46381;PMS5003;66809;52.974;-2.514;2024-02-21T01:12:11;0.8166666666666667;0.6166666666666667;
46381;PMS5003;66809;52.974;-2.514;2024-02-21T01:14:12;0.8833333333333333;0.6833333333333333;
46381;PMS5003;66809;52.974;-2.514;2024-02-21T01:16:12;0.9166666666666666;0.7833333333333333;
46381;PMS5003;66809;52.974;-2.514;2024-02-21T01:18:11;0.9333333333333333;0.8166666666666667;
46381;PMS5003;66809;52.974;-2.514;2024-02-21T01:20:12;0.9833333333333333;0.8666666666666667;
46381;PMS5003;66809;52.974;-2.514;2024-02-21T01:22:12;1.05;0.9333333333333333;
46381;PMS5003;66809;52.974;-2.514;2024-02-21T01:24:11;1.1833333333333333;1.05;
46381;PMS5003;66809;52.974;-2.514;2024-02-21T01:26:12;1.25;1.1166666666666667;
46381;PMS5003;66809;52.974;-2.514;2024-02-21T01:28:12;1.3833333333333333;1.25;
46381;PMS5003;66809;52.974;-2.514;2024-02-21T01:30:12;1.5333333333333334;1.3666666666666667;
46381;PMS5003;66809;52.974;-2.514;2024-02-21T01:32:11;1.6666666666666667;1.5;
46381;PMS5003;66809;52.974;-2.514;2024-02-21T01:34:12;1.7666666666666666;1.6166666666666667;
46381;PMS5003;66809;52.974;-2.514;2024-02-21T01:36:12;1.8833333333333333;1.6833333333333333;
46381;PMS5003;66809;52.974;-2.514;2024-02-21T01:38:12;2.033333333333333;1.7833333333333334;
46381;PMS5003;66809;52.974;-2.514;2024-02-21T01:40:12;2.1333333333333333;1.8833333333333333;
46381;PMS5003;66809;52.974;-2.514;2024-02-21T01:42:11;2.3;2.033333333333333;
46381;PMS5003;66809;52.974;-2.514;2024-02-21T01:44:12;2.466666666666667;2.183333333333333;
46381;PMS5003;66809;52.974;-2.514;2024-02-21T01:46:12;2.6166666666666667;2.3;
46381;PMS5003;66809;52.974;-2.514;2024-02-21T01:48:12;2.816666666666667;2.4833333333333334;
46381;PMS5003;66809;52.974;-2.514;2024-02-21T01:50:11;2.9833333333333334;2.6333333333333333;
46381;PMS5003;66809;52.974;-2.514;2024-02-21T01:52:11;3.1333333333333333;2.783333333333333;
46381;PMS5003;66809;52.974;-2.514;2024-02-21T01:54:11;3.316666666666667;2.933333333333333;
46381;PMS5003;66809;52.974;-2.514;2024-02-21T01:56:12;3.466666666666667;3.066666666666667;
46381;PMS5003;66809;52.974;-2.514;2024-02-21T01:58:12;3.6166666666666667;3.2333333333333334;
46381;PMS5003;66809;52.974;-2.514;2024-02-21T02:00:12;3.7333333333333334;3.35;
46381;PMS5003;66809;52.974;-2.514;2024-02-21T02:02:11;3.8666666666666667;3.4833333333333334;
46381;PMS5003;66809;52.974;-2.514;2024-02-21T02:04:11;4.1;3.683333333333333;
46381;PMS5003;66809;52.974;-2.514;2024-02-21T02:06:12;4.35;3.8666666666666667;
46381;PMS5003;66809;52.974;-2.514;2024-02-21T02:08:12;4.566666666666666;4.0;
46381;PMS5003;66809;52.974;-2.514;2024-02-21T02:10:12;4.716666666666667;4.15;
46381;PMS5003;66809;52.974;-2.514;2024-02-21T02:12:12;4.95;4.333333333333333;
46381;PMS5003;66809;52.974;-2.514;2024-02-21T02:14:12;5.116666666666666;4.466666666666667;
46381;PMS5003;66809;52.974;-2.514;2024-02-21T02:16:11;5.333333333333333;4.616666666666666;
46381;PMS5003;66809;52.974;-2.514;2024-02-21T02:18:13;5.533333333333333;4.783333333333333;
46381;PMS5003;66809;52.974;-2.514;2024-02-21T02:20:12;5.816666666666666;4.916666666666667;
46381;PMS5003;66809;52.974;-2.514;2024-02-21T02:22:14;6.033333333333333;5.1;
46381;PMS5003;66809;52.974;-2.514;2024-02-21T02:24:12;6.166666666666667;5.216666666666667;
46381;PMS5003;66809;52.974;-2.514;2024-02-21T02:26:11;6.35;5.366666666666666;
46381;PMS5003;66809;52.974;-2.514;2024-02-21T02:28:12;6.5;5.5;
46381;PMS5003;66809;52.974;-2.514;2024-02-21T02:30:12;6.633333333333334;5.633333333333334;
46381;PMS5003;66809;52.974;-2.514;2024-02-21T02:32:12;6.883333333333334;5.766666666666667;
46381;PMS5003;66809;52.974;-2.514;2024-02-21T02:34:12;6.983333333333333;5.833333333333333;
46381;PMS5003;66809;52.974;-2.514;2024-02-21T02:36:11;7.116666666666666;5.983333333333333;
46381;PMS5003;66809;52.974;-2.514;2024-02-21T02:38:12;7.183333333333334;6.083333333333333;
46381;PMS5003;66809;52.974;-2.514;2024-02-21T02:40:12;7.283333333333333;6.166666666666667;
46381;PMS5003;66809;52.974;-2.514;2024-02-21T02:42:12;7.45;6.333333333333333;
46381;PMS5003;66809;52.974;-2.514;2024-02-21T02:44:11;7.55;6.366666666666666;
46381;PMS5003;66809;52.974;-2.514;2024-02-21T02:46:12;7.683333333333334;6.45;
46381;PMS5003;66809;52.974;-2.514;2024-02-21T02:48:12;7.8;6.483333333333333;
46381;PMS5003;66809;52.974;-2.514;2024-02-21T02:50:12;7.816666666666666;6.5;
46381;PMS5003;66809;52.974;-2.514;2024-02-21T02:52:12;7.933333333333334;6.516666666666667;
46381;PMS5003;66809;52.974;-2.514;2024-02-21T02:54:11;7.933333333333334;6.55;
46381;PMS5003;66809;52.974;-2.514;2024-02-21T02:56:14;8.016666666666667;6.583333333333333;
46381;PMS5003;66809;52.974;-2.514;2024-02-21T02:58:12;8.016666666666667;6.583333333333333;
46381;PMS5003;66809;52.974;-2.514;2024-02-21T03:00:12;8.116666666666667;6.633333333333334;
46381;PMS5003;66809;52.974;-2.514;2024-02-21T03:02:12;8.216666666666667;6.666666666666667;
46381;PMS5003;66809;52.974;-2.514;2024-02-21T03:04:11;8.216666666666667;6.616666666666666;
46381;PMS5003;66809;52.974;-2.514;2024-02-21T03:06:12;8.133333333333333;6.6;
46381;PMS5003;66809;52.974;-2.514;2024-02-21T03:08:12;8.083333333333334;6.633333333333334;
46381;PMS5003;66809;52.974;-2.514;2024-02-21T03:10:12;8.133333333333333;6.616666666666666;
46381;PMS5003;66809;52.974;-2.514;2024-02-21T03:12:12;8.116666666666667;6.633333333333334;
46381;PMS5003;66809;52.974;-2.514;2024-02-21T03:14:12;8.033333333333333;6.566666666666666;
46381;PMS5003;66809;52.974;-2.514;2024-02-21T03:16:11;7.916666666666667;6.5;
46381;PMS5003;66809;52.974;-2.514;2024-02-21T03:18:12;7.816666666666666;6.4;
46381;PMS5003;66809;52.974;-2.514;2024-02-21T03:20:12;7.666666666666667;6.366666666666666;
46381;PMS5003;66809;52.974;-2.514;2024-02-21T03:22:12;7.516666666666667;6.233333333333333;
46381;PMS5003;66809;52.974;-2.514;2024-02-21T03:24:12;7.366666666666666;6.116666666666666;
46381;PMS5003;66809;52.974;-2.514;2024-02-21T03:26:11;7.266666666666667;6.05;
46381;PMS5003;66809;52.974;-2.514;2024-02-21T03:28:12;7.216666666666667;6.016666666666667;
46381;PMS5003;66809;52.974;-2.514;2024-02-21T03:30:12;7.116666666666666;5.933333333333334;
46381;PMS5003;66809;52.974;-2.514;2024-02-21T03:32:12;6.833333333333333;5.766666666666667;
46381;PMS5003;66809;52.974;-2.514;2024-02-21T03:34:12;6.783333333333333;5.716666666666667;
46381;PMS5003;66809;52.974;-2.514;2024-02-21T03:36:13;6.65;5.616666666666666;
46381;PMS5003;66809;52.974;-2.514;2024-02-21T03:38:12;6.583333333333333;5.533333333333333;
46381;PMS5003;66809;52.974;-2.514;2024-02-21T03:40:12;6.516666666666667;5.483333333333333;
46381;PMS5003;66809;52.974;-2.514;2024-02-21T03:42:11;6.333333333333333;5.25;
46381;PMS5003;66809;52.974;-2.514;2024-02-21T03:44:12;6.216666666666667;5.216666666666667;
46381;PMS5003;66809;52.974;-2.514;2024-02-21T03:46:12;6.0;5.083333333333333;
46381;PMS5003;66809;52.974;-2.514;2024-02-21T03:48:12;5.833333333333333;4.983333333333333;
46381;PMS5003;66809;52.974;-2.514;2024-02-21T03:50:12;5.733333333333333;4.866666666666666;
46381;PMS5003;66809;52.974;-2.514;2024-02-21T03:52:11;5.533333333333333;4.75;
46381;PMS5003;66809;52.974;-2.514;2024-02-21T03:54:12;5.466666666666667;4.683333333333334;
46381;PMS5003;66809;52.974;-2.514;2024-02-21T03:56:12;5.316666666666666;4.6;
46381;PMS5003;66809;52.974;-2.514;2024-02-21T03:58:11;5.316666666666666;4.533333333333333;
46381;PMS5003;66809;52.974;-2.514;2024-02-21T04:00:11;5.2;4.433333333333334;
46381;PMS5003;66809;52.974;-2.514;2024-02-21T04:02:12;5.016666666666667;4.316666666666666;
46381;PMS5003;66809;52.974;-2.514;2024-02-21T04:04:11;4.9;4.266666666666667;
46381;PMS5003;66809;52.974;-2.514;2024-02-21T04:06:12;4.8;4.15;
46381;PMS5003;66809;52.974;-2.514;2024-02-21T04:08:12;4.716666666666667;4.016666666666667;
46381;PMS5003;66809;52.974;-2.514;2024-02-21T04:10:11;4.516666666666667;3.8833333333333333;
46381;PMS5003;66809;52.974;-2.514;2024-02-21T04:12:12;4.333333333333333;3.7;
46381;PMS5003;66809;52.974;-2.514;2024-02-21T04:14:12;4.25;3.6166666666666667;
46381;PMS5003;66809;52.974;-2.514;2024-02-21T04:16:12;4.133333333333334;3.5;
46381;PMS5003;66809;52.974;-2.514;2024-02-21T04:18:11;4.0;3.4;
46381;PMS5003;66809;52.974;-2.514;2024-02-21T04:20:13;3.8666666666666667;3.283333333333333;
46381;PMS5003;66809;52.974;-2.514;2024-02-21T04:22:12;3.85;3.2;
46381;PMS5003;66809;52.974;-2.514;2024-02-21T04:24:11;3.783333333333333;3.1166666666666667;
46381;PMS5003;66809;52.974;-2.514;2024-02-21T04:26:12;3.6666666666666665;2.9833333333333334;
46381;PMS5003;66809;52.974;-2.514;2024-02-21T04:28:12;3.5;2.816666666666667;
46381;PMS5003;66809;52.974;-2.514;2024-02-21T04:30:12;3.4;2.7;
46381;PMS5003;66809;52.974;-2.514;2024-02-21T04:32:11;3.3333333333333335;2.6333333333333333;
46381;PMS5003;66809;52.974;-2.514;2024-02-21T04:34:12;3.2;2.5166666666666666;
46381;PMS5003;66809;52.974;-2.514;2024-02-21T04:36:12;3.15;2.4166666666666665;
46381;PMS5003;66809;52.974;-2.514;2024-02-21T04:38:11;3.0833333333333335;2.3;
46381;PMS5003;66809;52.974;-2.514;2024-02-21T04:40:12;2.9833333333333334;2.2;
46381;PMS5003;66809;52.974;-2.514;2024-02-21T04:42:12;2.8666666666666667;2.15;
46381;PMS5003;66809;52.974;-2.514;2024-02-21T04:44:11;2.7333333333333334;2.033333333333333;
46381;PMS5003;66809;52.974;-2.514;2024-02-21T04:46:12;2.6666666666666665;1.95;
46381;PMS5003;66809;52.974;-2.514;2024-02-21T04:48:12;2.55;1.8666666666666667;
46381;PMS5003;66809;52.974;-2.514;2024-02-21T04:50:12;2.466666666666667;1.8333333333333333;
46381;PMS5003;66809;52.974;-2.514;2024-02-21T04:52:11;2.433333333333333;1.7833333333333334;
46381;PMS5003;66809;52.974;-2.514;2024-02-21T04:54:12;2.3666666666666667;1.6833333333333333;
46381;PMS5003;66809;52.974;-2.514;2024-02-21T04:56:12;2.283333333333333;1.6;
46381;PMS5003;66809;52.974;-2.514;2024-02-21T04:58:11;2.183333333333333;1.5666666666666667;
46381;PMS5003;66809;52.974;-2.514;2024-02-21T05:00:13;2.0833333333333335;1.5;
46381;PMS5003;66809;52.974;-2.514;2024-02-21T05:02:12;2.0833333333333335;1.4666666666666666;
46381;PMS5003;66809;52.974;-2.514;2024-02-21T05:04:12;2.0166666666666666;1.4166666666666667;
46381;PMS5003;66809;52.974;-2.514;2024-02-21T05:06:11;1.9333333333333333;1.35;
46381;PMS5003;66809;52.974;-2.514;2024-02-21T05:08:12;1.9;1.3666666666666667;
46381;PMS5003;66809;52.974;-2.514;2024-02-21T05:10:12;1.8666666666666667;1.35;
46381;PMS5003;66809;52.974;-2.514;2024-02-21T05:12:11;1.8333333333333333;1.3333333333333333;
46381;PMS5003;66809;52.974;-2.514;2024-02-21T05:14:12;1.7833333333333334;1.2833333333333334;
46381;PMS5003;66809;52.974;-2.514;2024-02-21T05:16:12;1.7666666666666666;1.2666666666666666;
46381;PMS5003;66809;52.974;-2.514;2024-02-21T05:18:11;1.8166666666666667;1.2666666666666666;
46381;PMS5003;66809;52.974;-2.514;2024-02-21T05:20:12;1.7666666666666666;1.2333333333333334;
46381;PMS5003;66809;52.974;-2.514;2024-02-21T05:22:12;1.6666666666666667;1.2166666666666666;
46381;PMS5003;66809;52.974;-2.514;2024-02-21T05:24:12;1.65;1.1833333333333333;
46381;PMS5003;66809;52.974;-2.514;2024-02-21T05:26:11;1.6166666666666667;1.1666666666666667;
46381;PMS5003;66809;52.974;-2.514;2024-02-21T05:28:12;1.6166666666666667;1.1333333333333333;
46381;PMS5003;66809;52.974;-2.514;2024-02-21T05:30:12;1.5833333333333333;1.1333333333333333;
46381;PMS5003;66809;52.974;-2.514;2024-02-21T05:32:12;1.5666666666666667;1.1166666666666667;
46381;PMS5003;66809;52.974;-2.514;2024-02-21T05:34:11;1.55;1.1;
46381;PMS5003;66809;52.974;-2.514;2024-02-21T05:36:12;1.5166666666666666;1.0833333333333333;
46381;PMS5003;66809;52.974;-2.514;2024-02-21T05:38:11;1.4666666666666666;1.0833333333333333;
46381;PMS5003;66809;52.974;-2.514;2024-02-21T05:40:12;1.45;1.05;
46381;PMS5003;66809;52.974;-2.514;2024-02-21T05:42:11;1.4666666666666666;1.0666666666666667;
46381;PMS5003;66809;52.974;-2.514;2024-02-21T05:44:12;1.4333333333333333;1.0166666666666666;
46381;PMS5003;66809;52.974;-2.514;2024-02-21T05:46:12;1.45;1.05;
46381;PMS5003;66809;52.974;-2.514;2024-02-21T05:48:11;1.4833333333333334;1.0666666666666667;
46381;PMS5003;66809;52.974;-2.514;2024-02-21T05:50:12;1.55;1.1;
46381;PMS5003;66809;52.974;-2.514;2024-02-21T05:52:12;1.5333333333333334;1.1;
46381;PMS5003;66809;52.974;-2.514;2024-02-21T05:54:11;1.4833333333333334;1.0666666666666667;
46381;PMS5003;66809;52.974;-2.514;2024-02-21T05:56:12;1.5;1.0833333333333333;
46381;PMS5003;66809;52.974;-2.514;2024-02-21T05:58:11;1.4333333333333333;1.0333333333333334;
46381;PMS5003;66809;52.974;-2.514;2024-02-21T06:00:13;1.45;1.0166666666666666;
46381;PMS5003;66809;52.974;-2.514;2024-02-21T06:02:11;1.4333333333333333;1.0166666666666666;
46381;PMS5003;66809;52.974;-2.514;2024-02-21T06:04:12;1.3833333333333333;0.9666666666666667;
46381;PMS5003;66809;52.974;-2.514;2024-02-21T06:06:11;1.3833333333333333;0.9666666666666667;
46381;PMS5003;66809;52.974;-2.514;2024-02-21T06:08:12;1.4166666666666667;0.9333333333333333;
46381;PMS5003;66809;52.974;-2.514;2024-02-21T06:10:12;1.3833333333333333;0.9;
46381;PMS5003;66809;52.974;-2.514;2024-02-21T06:12:12;1.4;0.9;
46381;PMS5003;66809;52.974;-2.514;2024-02-21T06:14:11;1.4;0.9166666666666666;
46381;PMS5003;66809;52.974;-2.514;2024-02-21T06:16:12;1.3333333333333333;0.8666666666666667;
46381;PMS5003;66809;52.974;-2.514;2024-02-21T06:18:12;1.3166666666666667;0.85;
46381;PMS5003;66809;52.974;-2.514;2024-02-21T06:20:11;1.35;0.85;
46381;PMS5003;66809;52.974;-2.514;2024-02-21T06:22:12;1.3666666666666667;0.85;
46381;PMS5003;66809;52.974;-2.514;2024-02-21T06:24:12;1.3666666666666667;0.8666666666666667;
46381;PMS5003;66809;52.974;-2.514;2024-02-21T06:26:11;1.3666666666666667;0.8833333333333333;
46381;PMS5003;66809;52.974;-2.514;2024-02-21T06:28:12;1.35;0.9;
46381;PMS5003;66809;52.974;-2.514;2024-02-21T06:30:12;1.3833333333333333;0.9333333333333333;
46381;PMS5003;66809;52.974;-2.514;2024-02-21T06:32:12;1.4166666666666667;0.9666666666666667;
46381;PMS5003;66809;52.974;-2.514;2024-02-21T06:34:12;1.4833333333333334;1.05;
46381;PMS5003;66809;52.974;-2.514;2024-02-21T06:36:11;1.55;1.1;
46381;PMS5003;66809;52.974;-2.514;2024-02-21T06:38:12;1.6166666666666667;1.1333333333333333;
46381;PMS5003;66809;52.974;-2.514;2024-02-21T06:40:12;1.65;1.1833333333333333;
46381;PMS5003;66809;52.974;-2.514;2024-02-21T06:42:12;1.6666666666666667;1.2;
46381;PMS5003;66809;52.974;-2.514;2024-02-21T06:44:11;1.75;1.2833333333333334;
46381;PMS5003;66809;52.974;-2.514;2024-02-21T06:46:12;1.8333333333333333;1.3333333333333333;
46381;PMS5003;66809;52.974;-2.514;2024-02-21T06:48:12;1.8666666666666667;1.35;
46381;PMS5003;66809;52.974;-2.514;2024-02-21T06:50:12;1.9166666666666667;1.3666666666666667;
46381;PMS5003;66809;52.974;-2.514;2024-02-21T06:52:11;2.0166666666666666;1.45;
46381;PMS5003;66809;52.974;-2.514;2024-02-21T06:54:12;2.0833333333333335;1.5166666666666666;
46381;PMS5003;66809;52.974;-2.514;2024-02-21T06:56:12;2.1166666666666667;1.5166666666666666;
46381;PMS5003;66809;52.974;-2.514;2024-02-21T06:58:12;2.2;1.5833333333333333;
46381;PMS5003;66809;52.974;-2.514;2024-02-21T07:00:12;2.25;1.6666666666666667;
46381;PMS5003;66809;52.974;-2.514;2024-02-21T07:02:12;2.2666666666666666;1.6666666666666667;
46381;PMS5003;66809;52.974;-2.514;2024-02-21T07:04:11;2.3333333333333335;1.7333333333333334;
46381;PMS5003;66809;52.974;-2.514;2024-02-21T07:06:12;2.3833333333333333;1.7833333333333334;
46381;PMS5003;66809;52.974;-2.514;2024-02-21T07:08:12;2.4;1.8333333333333333;
46381;PMS5003;66809;52.974;-2.514;2024-02-21T07:10:11;2.466666666666667;1.9;
46381;PMS5003;66809;52.974;-2.514;2024-02-21T07:12:12;2.5;1.95;
46381;PMS5003;66809;52.974;-2.514;2024-02-21T07:14:13;2.55;1.9666666666666666;
46381;PMS5003;66809;52.974;-2.514;2024-02-21T07:16:11;2.6666666666666665;2.066666666666667;
46381;PMS5003;66809;52.974;-2.514;2024-02-21T07:18:12;2.75;2.1666666666666665;
46381;PMS5003;66809;52.974;-2.514;2024-02-21T07:20:12;2.783333333333333;2.2333333333333334;
46381;PMS5003;66809;52.974;-2.514;2024-02-21T07:22:12;2.816666666666667;2.2666666666666666;
46381;PMS5003;66809;52.974;-2.514;2024-02-21T07:24:11;2.85;2.316666666666667;
46381;PMS5003;66809;52.974;-2.514;2024-02-21T07:26:12;2.9;2.35;
46381;PMS5003;66809;52.974;-2.514;2024-02-21T07:28:12;2.95;2.3833333333333333;
46381;PMS5003;66809;52.974;-2.514;2024-02-21T07:30:12;2.966666666666667;2.4;
46381;PMS5003;66809;52.974;-2.514;2024-02-21T07:32:12;2.966666666666667;2.4;
46381;PMS5003;66809;52.974;-2.514;2024-02-21T07:34:11;2.9833333333333334;2.3833333333333333;
46381;PMS5003;66809;52.974;-2.514;2024-02-21T07:36:14;2.966666666666667;2.4;
46381;PMS5003;66809;52.974;-2.514;2024-02-21T07:38:11;2.9833333333333334;2.4166666666666665;
46381;PMS5003;66809;52.974;-2.514;2024-02-21T07:40:12;3.0;2.433333333333333;
46381;PMS5003;66809;52.974;-2.514;2024-02-21T07:42:12;3.033333333333333;2.466666666666667;
46381;PMS5003;66809;52.974;-2.514;2024-02-21T07:44:11;3.0;2.45;
46381;PMS5003;66809;52.974;-2.514;2024-02-21T07:46:12;2.966666666666667;2.433333333333333;
46381;PMS5003;66809;52.974;-2.514;2024-02-21T07:48:12;2.966666666666667;2.466666666666667;
46381;PMS5003;66809;52.974;-2.514;2024-02-21T07:50:11;2.9166666666666665;2.4833333333333334;
46381;PMS5003;66809;52.974;-2.514;2024-02-21T07:52:12;2.9;2.4833333333333334;
46381;PMS5003;66809;52.974;-2.514;2024-02-21T07:54:12;2.933333333333333;2.4833333333333334;
46381;PMS5003;66809;52.974;-2.514;2024-02-21T07:56:11;2.9833333333333334;2.5166666666666666;
46381;PMS5003;66809;52.974;-2.514;2024-02-21T07:58:12;3.033333333333333;2.5;
46381;PMS5003;66809;52.974;-2.514;2024-02-21T08:00:12;3.066666666666667;2.533333333333333;
46381;PMS5003;66809;52.974;-2.514;2024-02-21T08:02:12;3.0833333333333335;2.5833333333333335;
46381;PMS5003;66809;52.974;-2.514;2024-02-21T08:04:11;3.0833333333333335;2.5833333333333335;
46381;PMS5003;66809;52.974;-2.514;2024-02-21T08:06:12;3.15;2.5833333333333335;
46381;PMS5003;66809;52.974;-2.514;2024-02-21T08:08:12;3.15;2.6166666666666667;
46381;PMS5003;66809;52.974;-2.514;2024-02-21T08:10:12;3.1166666666666667;2.5833333333333335;
46381;PMS5003;66809;52.974;-2.514;2024-02-21T08:12:11;3.1666666666666665;2.6166666666666667;
46381;PMS5003;66809;52.974;-2.514;2024-02-21T08:14:12;3.15;2.6333333333333333;
46381;PMS5003;66809;52.974;-2.514;2024-02-21T08:16:12;3.1;2.6;
46381;PMS5003;66809;52.974;-2.514;2024-02-21T08:18:11;3.066666666666667;2.5833333333333335;
46381;PMS5003;66809;52.974;-2.514;2024-02-21T08:20:12;3.05;2.55;
46381;PMS5003;66809;52.974;-2.514;2024-02-21T08:22:12;3.1166666666666667;2.55;
46381;PMS5003;66809;52.974;-2.514;2024-02-21T08:24:11;3.1166666666666667;2.533333333333333;
46381;PMS5003;66809;52.974;-2.514;2024-02-21T08:26:12;3.066666666666667;2.5;
46381;PMS5003;66809;52.974;-2.514;2024-02-21T08:28:12;3.05;2.5;
46381;PMS5003;66809;52.974;-2.514;2024-02-21T08:30:12;3.066666666666667;2.466666666666667;
46381;PMS5003;66809;52.974;-2.514;2024-02-21T08:32:12;3.066666666666667;2.433333333333333;
46381;PMS5003;66809;52.974;-2.514;2024-02-21T08:34:11;3.0166666666666666;2.4166666666666665;
46381;PMS5003;66809;52.974;-2.514;2024-02-21T08:36:16;2.95;2.3666666666666667;
46381;PMS5003;66809;52.974;-2.514;2024-02-21T08:38:11;2.8666666666666667;2.35;
46381;PMS5003;66809;52.974;-2.514;2024-02-21T08:40:12;2.816666666666667;2.3;
46381;PMS5003;66809;52.974;-2.514;2024-02-21T08:42:12;2.75;2.2333333333333334;
46381;PMS5003;66809;52.974;-2.514;2024-02-21T08:44:12;2.716666666666667;2.2;
46381;PMS5003;66809;52.974;-2.514;2024-02-21T08:46:12;2.683333333333333;2.1666666666666665;
46381;PMS5003;66809;52.974;-2.514;2024-02-21T08:48:11;2.6166666666666667;2.0833333333333335;
46381;PMS5003;66809;52.974;-2.514;2024-02-21T08:50:12;2.533333333333333;2.0;
46381;PMS5003;66809;52.974;-2.514;2024-02-21T08:52:12;2.4833333333333334;1.95;
46381;PMS5003;66809;52.974;-2.514;2024-02-21T08:54:11;2.4;1.9166666666666667;
46381;PMS5003;66809;52.974;-2.514;2024-02-21T08:56:12;2.283333333333333;1.85;
46381;PMS5003;66809;52.974;-2.514;2024-02-21T08:58:12;2.1333333333333333;1.7833333333333334;
46381;PMS5003;66809;52.974;-2.514;2024-02-21T09:00:12;2.0;1.65;
46381;PMS5003;66809;52.974;-2.514;2024-02-21T09:02:12;1.9;1.55;
46381;PMS5003;66809;52.974;-2.514;2024-02-21T09:04:11;1.85;1.4666666666666666;
46381;PMS5003;66809;52.974;-2.514;2024-02-21T09:06:11;1.7333333333333334;1.4166666666666667;
46381;PMS5003;66809;52.974;-2.514;2024-02-21T09:08:12;1.6833333333333333;1.3333333333333333;
46381;PMS5003;66809;52.974;-2.514;2024-02-21T09:10:12;1.65;1.2833333333333334;
46381;PMS5003;66809;52.974;-2.514;2024-02-21T09:12:11;1.5666666666666667;1.1833333333333333;
46381;PMS5003;66809;52.974;-2.514;2024-02-21T09:14:12;1.5;1.1166666666666667;
46381;PMS5003;66809;52.974;-2.514;2024-02-21T09:16:12;1.4333333333333333;1.05;
46381;PMS5003;66809;52.974;-2.514;2024-02-21T09:18:11;1.3166666666666667;0.95;
46381;PMS5003;66809;52.974;-2.514;2024-02-21T09:20:12;1.2833333333333334;0.8833333333333333;
46381;PMS5003;66809;52.974;-2.514;2024-02-21T09:22:12;1.1833333333333333;0.8333333333333334;
46381;PMS5003;66809;52.974;-2.514;2024-02-21T09:24:12;1.1166666666666667;0.7666666666666667;
46381;PMS5003;66809;52.974;-2.514;2024-02-21T09:26:11;1.0833333333333333;0.7333333333333333;